Weather observations for the past three days for
Ranger
Imperial (Metric)
Date Time (cdt) Wind (mph) Vis. (mi.) Weather Sky Cond. Temperature (ºF) Relative Humidity Wind Chill (°F) Heat Index (°F) Pressure Precipitation (in)
Air Dwpt 6 hour altimeter (in) sea level (mb) 1 hr 3 hr 6 hr
Max. Min.
10 15:55 N 17 G 21 1.25 Heavy Rain BKN008 OVC015 66.2 64.6 95% 30.04 0.0 1.12 1.12
10 15:35 NE 23 G 33 0.75 Heavy Rain and Breezy BKN006 OVC014 67.1 64.4 91% 29.93 0.0 0.49
10 15:15 NE 21 G 29 10.00 Light Rain and Breezy SCT026 BKN036 OVC085 73.4 67.6 82% 29.92 0.0
10 14:55 NE 16 G 28 10.00 Mostly Cloudy SCT033 SCT047 BKN055 81.7 68.9 65% 85 29.95 0.0
10 14:35 E 16 10.00 Mostly Cloudy SCT032 SCT043 BKN055 84 69.1 61% 88 29.97 0.0
10 14:15 NE 12 10.00 Mostly Cloudy SCT030 BKN039 BKN045 83.5 69.1 62% 87 29.97 0.0
10 13:55 NE 13 G 17 10.00 Mostly Cloudy SCT030 SCT036 BKN045 80.4 68.5 67% 83 29.97 0.0
10 13:35 NE 13 10.00 Mostly Cloudy BKN045 BKN050 BKN080 81.3 68.5 65% 84 29.98 0.0
10 13:15 SE 6 10.00 Mostly Cloudy SCT035 BKN045 BKN055 83.8 67.5 58% 87 29.98 0.0
10 12:55 NE 3 10.00 Mostly Cloudy SCT034 BKN041 BKN048 82.9 67.5 84.4 66.7 60% 86 29.98 0.0
10 12:35 Calm 10.00 Mostly Cloudy BKN032 BKN038 81.7 67.3 62% 84 29.98 0.0
10 12:15 S 6 10.00 Mostly Cloudy BKN029 82.4 68.7 63% 86 29.98 0.0
10 11:55 S 3 10.00 Partly Cloudy SCT027 SCT035 81 67.6 64% 84 29.97 0.0
10 11:35 S 8 10.00 Mostly Cloudy BKN027 81.1 68.2 65% 84 29.97 0.0
10 11:15 SE 7 10.00 Partly Cloudy SCT027 80.4 68 66% 83 29.95 0.0
10 10:35 S 9 5.00 Partly Cloudy with Haze SCT023 79.2 67.5 68% 81 29.95 0.0
10 10:15 E 6 5.00 Partly Cloudy with Haze SCT021 78.1 67.3 70% 80 29.96 0.0
10 09:55 SE 6 7.00 Fair CLR 77 67.1 72% 79 29.96 0.0
10 09:35 SE 8 7.00 Fair CLR 76.5 67.1 73% 78 29.96 0.0
10 09:15 SE 8 5.00 Fair with Haze CLR 74.3 66.4 76% 29.96 0.0
10 08:55 SE 9 5.00 Fair with Haze CLR 72.7 66.2 80% 29.96 0.0
10 08:35 SE 9 7.00 Fair CLR 71.1 66.2 85% 29.96 0.0
10 08:15 E 9 10.00 Fair CLR 69.8 66.2 88% 29.95 0.0
10 07:55 E 8 10.00 Fair CLR 68.7 66 91% 29.96 0.0
10 07:35 E 6 10.00 Fair CLR 67.5 65.7 94% 29.95 0.0
10 07:15 E 5 7.00 Fair CLR 66.9 65.5 95% 29.94 0.0
10 06:55 E 7 7.00 Fair CLR 66.7 65.5 73.6 66.6 96% 29.94 0.0
10 06:35 NE 7 7.00 Fair CLR 66.6 65.3 96% 29.92 0.0
10 06:15 NE 6 10.00 Fair CLR 66.7 65.3 95% 29.9 0.0
10 05:55 E 5 10.00 Fair CLR 67.3 65.5 94% 29.88 0.0
10 05:35 E 6 10.00 Fair CLR 67.8 65.3 92% 29.87 0.0
10 05:15 SE 5 10.00 Fair CLR 69.6 65.8 88% 29.86 0.0
10 04:55 E 7 10.00 Fair CLR 70.3 66.2 87% 29.87 0.0
10 04:35 E 8 10.00 Fair CLR 70.2 66 87% 29.85 0.0
10 04:15 SE 9 10.00 Fair CLR 70.2 66.2 87% 29.84 0.0
10 03:55 SE 7 10.00 Fair CLR 70.5 65.7 85% 29.83 0.0
10 03:35 S 9 G 16 10.00 Fair CLR 71.2 65.3 82% 29.82 0.0
10 03:15 S 12 G 18 10.00 Fair CLR 71.8 64.9 79% 29.81 0.0
10 02:55 S 10 G 17 10.00 Fair CLR 72 64.6 78% 29.81 0.0
10 02:35 S 13 G 20 10.00 Fair CLR 72.1 64 76% 29.81 0.0
10 02:15 S 13 G 18 10.00 Fair CLR 72.5 63.9 74% 29.81 0.0
10 01:55 S 12 G 16 10.00 Fair CLR 72.7 63.9 74% 29.82 0.0
10 01:35 S 10 10.00 Fair CLR 73 64 74% 29.82 0.0
10 01:15 S 12 10.00 Fair CLR 73.4 64 73% 29.82 0.0
10 00:55 S 12 G 18 10.00 Fair CLR 73.6 64.4 85.5 72.5 73% 29.82 0.0
10 00:35 S 10 G 21 10.00 Fair CLR 74.3 63.7 70% 29.82 0.0
10 00:15 S 13 G 20 10.00 Fair CLR 74.8 62.8 66% 29.81 0.0
09 23:55 S 14 G 17 10.00 Fair CLR 75 60.6 61% 77 29.81 0.0
09 23:35 S 10 G 20 10.00 Fair CLR 74.1 59.7 61% 29.82 0.0
09 23:15 S 12 10.00 Fair CLR 73.4 59.5 62% 29.82 0.0
09 22:55 S 8 10.00 Fair CLR 72.7 59.9 64% 29.82 0.0
09 22:35 S 9 10.00 Fair CLR 73.4 59.9 63% 29.83 0.0
09 22:15 S 8 10.00 Fair CLR 73.8 60.4 63% 29.83 0.0
09 21:55 S 7 10.00 Fair CLR 73.6 60.3 63% 29.82 0.0
09 21:35 S 6 10.00 Fair CLR 75.2 60.3 60% 77 29.82 0.0
09 21:15 S 8 10.00 Fair CLR 75 59.9 59% 77 29.81 0.0
09 20:55 S 6 10.00 Fair CLR 76.1 60.3 58% 78 29.8 0.0
09 20:35 S 5 10.00 Fair CLR 77.4 61 57% 79 29.8 0.0
09 20:15 S 6 10.00 Fair CLR 77.9 61.2 56% 79 29.79 0.0
09 19:55 S 6 10.00 Fair CLR 80.6 61 51% 81 29.79 0.0
09 19:35 S 8 10.00 Fair CLR 82.8 61 48% 83 29.79 0.0
09 19:15 S 8 10.00 Fair CLR 84.6 60.6 45% 85 29.79 0.0
09 18:55 S 8 10.00 Fair CLR 85.5 61.2 88.7 82 44% 86 29.79 0.0
09 18:35 S 8 10.00 Fair CLR 86.5 60.4 42% 86 29.8 0.0
09 18:15 S 9 10.00 Fair CLR 86.9 60.4 41% 87 29.79 0.0
09 17:55 S 8 10.00 Fair CLR 87.8 61.2 41% 88 29.8 0.0
09 17:35 S 5 10.00 Fair CLR 88.3 59.9 38% 88 29.79 0.0
09 17:15 S 7 10.00 Fair CLR 88 60.4 40% 88 29.8 0.0
09 16:55 SW 3 10.00 Fair CLR 88 57.9 36% 87 29.8 0.0
09 16:35 S 7 10.00 Fair CLR 88.3 59.9 38% 88 29.8 0.0
09 16:15 S 8 10.00 Fair CLR 88.5 59.9 38% 88 29.81 0.0
09 15:55 SE 3 10.00 Fair CLR 88 59 38% 87 29.82 0.0
09 15:35 S 9 10.00 Fair CLR 88.2 61.9 41% 89 29.83 0.0
09 15:15 Calm 10.00 Fair CLR 87.4 63.5 45% 89 29.83 0.0
09 14:55 SE 5 10.00 Fair CLR 86.9 63.3 45% 88 29.84 0.0
09 14:35 Calm 10.00 Fair CLR 86.4 61.3 43% 87 29.84 0.0
09 14:15 W 5 10.00 Fair CLR 86.2 62.1 44% 87 29.85 0.0
09 13:55 SE 3 10.00 Fair CLR 86.4 62.6 45% 87 29.85 0.0
09 13:35 E 3 10.00 Fair CLR 83.8 60.3 45% 84 29.86 0.0
09 13:15 S 5 10.00 Fair CLR 85.3 61.5 45% 86 29.88 0.0
09 12:55 Calm 10.00 Fair CLR 81.9 62.4 82.6 59.9 52% 83 29.89 0.0
09 12:35 Calm 10.00 Fair CLR 81 63.7 56% 82 29.89 0.0
09 12:15 Calm 10.00 Fair CLR 79.7 64.6 60% 81 29.9 0.0
09 11:55 Calm 10.00 Fair CLR 79.3 65.1 62% 81 29.9 0.0
09 11:35 Calm 10.00 Fair CLR 77.7 64.4 64% 80 29.91 0.0
09 11:15 Calm 10.00 Fair CLR 75.2 63.9 68% 77 29.91 0.0
09 10:55 N 3 10.00 Fair CLR 75.6 63.7 67% 77 29.91 0.0
09 10:35 N 5 10.00 Fair CLR 74.3 62.8 67% 29.91 0.0
09 10:15 NW 3 10.00 Fair CLR 73.8 62.2 67% 29.91 0.0
09 09:55 E 5 10.00 Fair CLR 72.9 61.2 67% 29.91 0.0
09 09:35 NE 3 10.00 Fair CLR 70.9 61.5 72% 29.91 0.0
09 09:15 NE 5 10.00 Fair CLR 68.7 61 76% 29.91 0.0
09 08:55 NE 3 10.00 Fair CLR 66.6 61.3 83% 29.91 0.0
09 08:35 NE 5 10.00 Fair CLR 65.3 60.8 85% 29.91 0.0
09 08:15 NE 5 10.00 Fair CLR 62.8 59.9 90% 29.9 0.0
09 07:55 N 5 10.00 Fair CLR 61.7 59.9 94% 29.9 0.0
09 07:35 Calm 10.00 Fair CLR 60.8 58.6 93% 29.89 0.0
09 07:15 Calm 10.00 Fair CLR 60.6 57.9 91% 29.87 0.0
09 06:55 W 5 10.00 Fair CLR 60.8 58.1 67.8 60.3 91% 29.86 0.0
09 06:35 W 7 10.00 Fair CLR 60.8 58.1 91% 29.85 0.0
09 06:15 W 6 10.00 Fair CLR 60.4 58.1 92% 29.84 0.0
09 05:55 Calm 10.00 Fair CLR 61 58.5 91% 29.83 0.0
09 05:35 NW 3 10.00 Fair CLR 61.3 59 92% 29.83 0.0
09 05:15 NW 6 10.00 Fair CLR 62.6 59 88% 29.83 0.0
09 04:55 SW 6 10.00 Fair CLR 63.1 59.2 87% 29.83 0.0
09 04:35 SW 9 G 18 10.00 Fair CLR 62.8 59.4 89% 29.83 0.0
09 04:15 SW 9 G 18 10.00 Fair CLR 62.6 59.4 89% 29.82 0.0
09 03:55 S 12 G 16 10.00 Fair CLR 63 58.5 85% 29.83 0.0
09 03:35 S 10 10.00 Fair CLR 62.8 57.7 84% 29.84 0.0
09 03:15 S 8 10.00 Fair CLR 62.8 58.1 85% 29.84 0.0
09 02:55 S 10 10.00 Fair CLR 61 58.5 91% 29.83 0.0
09 02:35 E 5 10.00 Partly Cloudy SCT044 SCT050 SCT065 61 58.8 93% 29.85 0.0
09 02:15 N 5 10.00 Light Rain SCT033 BKN046 OVC055 62.4 59 89% 29.92 0.0
09 01:55 N 13 G 20 10.00 Light Rain SCT008 BKN028 OVC033 66.7 60.6 81% 29.95 0.0
09 01:35 NE 15 G 23 10.00 Overcast BKN010 BKN014 OVC020 67.3 64.2 90% 29.93 0.0
09 01:15 NE 9 7.00 Mostly Cloudy BKN010 67.1 65.7 95% 29.91 0.0
09 00:55 NE 12 7.00 Partly Cloudy SCT008 65.7 64.4 74.8 65.7 96% 29.9 0.0
09 00:35 S 7 7.00 Fair CLR 66.6 64.8 94% 29.86 0.0
09 00:15 S 7 7.00 Fair CLR 67.3 65.1 93% 29.85 0.0
08 23:55 S 9 10.00 Fair CLR 67.8 65.3 92% 29.83 0.0
08 23:35 S 9 10.00 Fair CLR 68 65.3 91% 29.83 0.0
08 23:15 S 8 10.00 Fair CLR 68.2 65.3 91% 29.83 0.0
08 22:55 S 9 G 16 10.00 Fair CLR 68.4 65.3 90% 29.83 0.0
08 22:35 S 9 10.00 Fair CLR 68.2 65.3 91% 29.83 0.0
08 22:15 S 8 10.00 Fair CLR 68.9 65.3 88% 29.83 0.0
08 21:55 S 9 10.00 Fair CLR 69.4 65.3 87% 29.82 0.0
08 21:35 S 8 10.00 Fair CLR 69.8 65.3 86% 29.81 0.0
08 21:15 S 8 10.00 Fair CLR 68.9 65.1 88% 29.81 0.0
08 20:55 S 8 10.00 Partly Cloudy SCT050 70.2 65.3 85% 29.81 0.0
08 20:35 S 5 10.00 Overcast OVC050 70.7 65.5 84% 29.82 0.0
08 19:55 S 6 10.00 Mostly Cloudy BKN050 71.1 65.3 82% 29.8 0.0
08 19:35 S 5 10.00 Partly Cloudy SCT050 72.5 65.3 78% 29.8 0.0
08 19:15 S 6 10.00 Partly Cloudy SCT050 73.4 65.3 76% 29.8 0.0
08 18:55 SE 9 10.00 Partly Cloudy SCT050 74.3 65.3 77 66.4 74% 29.8 0.0 0.02
08 18:35 S 8 10.00 Partly Cloudy SCT023 SCT055 73.6 65.1 75% 29.8 0.0
08 18:15 SE 8 10.00 Mostly Cloudy SCT023 BKN055 75.7 65.5 71% 77 29.8 0.0
08 17:55 S 13 10.00 Partly Cloudy SCT023 75.7 65.3 70% 77 29.8 0.0
08 17:35 S 12 10.00 Partly Cloudy SCT023 76.3 65.3 69% 78 29.79 0.0
08 17:15 SE 13 10.00 Mostly Cloudy BKN027 76.5 65.5 69% 78 29.79 0.0
08 16:55 S 12 10.00 Overcast OVC025 75.6 65.3 71% 77 29.8 0.0
08 16:35 S 8 10.00 Overcast OVC023 75 65.3 72% 77 29.81 0.0
08 16:15 SE 8 10.00 Overcast OVC023 74.8 65.5 73% 29.82 0.0
08 15:35 S 7 10.00 Mostly Cloudy BKN019 73.9 65.3 75% 29.83 0.0
08 14:55 S 8 10.00 Mostly Cloudy BKN013 72 64.4 77% 29.85 0.0
08 14:35 SE 5 10.00 Mostly Cloudy BKN013 71.2 63.9 78% 29.85 0.0
08 14:15 S 7 10.00 Partly Cloudy SCT018 69.4 63.5 82% 29.86 0.0
08 13:55 S 9 10.00 Overcast BKN020 BKN032 OVC100 66.4 63.1 89% 29.87 0.0 0.02
08 13:35 S 9 7.00 Light Rain BKN022 BKN032 OVC046 66.9 63.9 90% 29.89 0.0 0.02
08 13:15 S 8 10.00 Overcast OVC022 70.2 61.9 75% 29.9 0.0
08 12:55 S 5 10.00 Overcast OVC020 70.7 61.7 73.2 55.9 73% 29.9 0.0
08 12:35 S 5 10.00 Overcast OVC022 71.8 61 69% 29.9 0.0
08 12:15 W 3 10.00 Overcast OVC022 71.6 60.6 68% 29.91 0.0
08 11:55 S 6 10.00 Overcast OVC022 70.9 59.9 68% 29.92 0.0
08 11:35 S 6 10.00 Overcast OVC022 68.9 58.8 70% 29.93 0.0
08 11:15 S 9 10.00 Overcast BKN017 OVC022 68.7 58.8 71% 29.94 0.0
08 10:55 S 7 10.00 Overcast OVC015 68 57.2 69% 29.95 0.0
08 10:15 SW 6 10.00 Overcast OVC013 64.4 55.8 74% 29.95 0.0
08 09:55 SW 7 10.00 Overcast OVC013 64 54.9 72% 29.96 0.0
08 09:35 S 9 10.00 Overcast BKN013 OVC019 64.4 54 69% 29.96 0.0
08 09:15 S 7 10.00 Overcast OVC013 62.6 53.4 72% 29.96 0.0
08 08:55 S 8 10.00 Overcast OVC015 60.8 53.4 77% 29.96 0.0
08 08:35 S 10 10.00 Overcast OVC013 60.8 53.4 77% 29.97 0.0
08 08:15 S 5 10.00 Overcast OVC015 59 53.6 82% 29.97 0.0
08 07:55 S 9 10.00 Mostly Cloudy BKN018 BKN039 58.5 53.1 82% 29.97 0.0
08 07:35 SW 6 10.00 Fair CLR 56.8 52.9 87% 29.97 0.0
08 07:15 S 6 10.00 Partly Cloudy SCT065 SCT070 SCT085 56.1 52.7 88% 29.96 0.0
08 06:55 S 7 10.00 Mostly Cloudy SCT044 SCT050 BKN085 55.8 53.6 59 54.5 93% 29.97 0.0
08 06:35 Calm 10.00 Mostly Cloudy BKN044 54.5 52.9 94% 29.97 0.0
08 06:15 Calm 10.00 Mostly Cloudy SCT044 BKN070 BKN080 54.9 53.2 94% 29.97 0.0
08 05:55 Calm 10.00 Mostly Cloudy SCT070 BKN080 55.8 53.4 92% 29.97 0.0
08 05:35 Calm 10.00 Mostly Cloudy SCT044 BKN070 BKN085 56.8 54.1 91% 29.97 0.0
08 05:15 Calm 10.00 Overcast BKN046 OVC070 57.4 54 88% 29.97 0.0
08 04:55 S 3 10.00 Overcast OVC048 57.6 54.7 90% 29.97 0.0
08 04:35 Calm 10.00 Overcast BKN042 OVC049 57.4 54.5 90% 29.98 0.0
08 04:15 Calm 10.00 Overcast OVC042 56.8 54.7 93% 29.98 0.0
08 03:55 Calm 10.00 Overcast OVC042 56.3 54.3 93% 29.97 0.0
08 03:35 Calm 10.00 Overcast BKN044 OVC050 55.6 53.8 94% 29.97 0.0
08 03:15 Calm 10.00 Mostly Cloudy SCT042 BKN050 55.8 53.8 93% 29.97 0.0
08 02:55 S 5 10.00 Fair CLR 55.6 53.2 92% 29.96 0.0
08 02:35 Calm 10.00 Fair CLR 56.7 54.1 91% 29.96 0.0
08 02:15 S 8 10.00 Mostly Cloudy SCT048 BKN060 BKN075 57.6 54.1 88% 29.97 0.0
08 01:55 S 3 10.00 Overcast OVC050 59 53.8 83% 30 0.0
08 01:35 Calm 10.00 Overcast OVC050 58.3 54.9 88% 30.01 0.0
08 01:15 Calm 10.00 Overcast OVC050 58.1 54.5 88% 30.01 0.0
08 00:55 Calm 10.00 Overcast OVC050 57.2 54.1 65.1 55.4 90% 30.01 0.0
08 00:35 SW 3 10.00 Mostly Cloudy BKN055 55.4 52.7 91% 30.01 0.0
08 00:15 Calm 10.00 Mostly Cloudy SCT055 BKN075 57.4 53.6 87% 30.01 0.0
07 23:55 S 3 10.00 Mostly Cloudy SCT055 BKN065 BKN085 57.6 53.6 87% 30.01 0.0
07 23:35 SW 5 10.00 Overcast BKN080 OVC085 58.3 53.4 84% 30.02 0.0
07 23:15 S 6 10.00 Overcast BKN080 OVC090 59.2 53.6 82% 30.02 0.0
07 22:55 SW 5 10.00 Mostly Cloudy BKN090 BKN110 59.5 53.6 81% 30.02 0.0
07 22:35 S 6 10.00 Mostly Cloudy BKN090 59.9 53.1 78% 30.02 0.0
07 22:15 S 6 10.00 Mostly Cloudy BKN090 BKN120 59.9 52.2 76% 30.01 0.0
07 21:55 S 5 10.00 Mostly Cloudy BKN100 BKN120 60.8 50.7 70% 30 0.0
07 21:35 S 5 10.00 Mostly Cloudy BKN100 BKN120 60.1 50.5 71% 29.98 0.0
07 21:15 S 3 10.00 Overcast OVC100 60.8 51.1 71% 29.99 0.0
07 20:55 SE 6 10.00 Overcast OVC100 60.8 51.1 71% 29.98 0.0
07 20:35 SE 5 10.00 Overcast OVC110 61.3 50.9 69% 29.97 0.0
07 20:15 S 6 10.00 Overcast OVC110 62.1 50.5 66% 29.98 0.0
07 19:55 S 6 10.00 Mostly Cloudy BKN110 62.8 50.9 65% 29.98 0.0
07 19:35 S 6 10.00 Overcast OVC110 63.7 50.9 63% 29.98 0.0
07 19:15 S 5 10.00 Mostly Cloudy BKN110 64.4 51.3 63% 29.98 0.0
07 18:55 SE 6 10.00 Fair CLR 65.3 51.6 73.2 65.3 61% 29.98 0.0
07 18:35 S 9 10.00 Fair CLR 66.4 51.4 59% 29.99 0.0
07 18:15 S 7 10.00 Partly Cloudy SCT120 66.6 51.4 58% 30.01 0.0
07 17:55 S 7 10.00 Fair CLR 67.3 51.6 57% 30.01 0.0
07 17:35 S 8 10.00 Fair CLR 67.1 51.8 58% 30.01 0.0
07 17:15 S 8 10.00 Fair CLR 66.7 51.4 58% 30.02 0.0
07 16:55 S 8 10.00 Fair CLR 67.1 51.4 57% 30.02 0.0
07 16:35 S 8 10.00 Fair CLR 67.8 50.5 54% 30.02 0.0
07 16:15 S 8 10.00 Partly Cloudy SCT120 68.2 50 52% 30.02 0.0
Date Time (cdt) Wind (mph) Vis. (mi.) Weather Sky Cond. Air Dwpt Max. Min. Relative Humidity Wind Chill (°F) Heat Index (°F) altimeter (in) sea level (mb) 1 hr 3 hr 6 hr
6 hour
Temperature (ºF) Pressure Precipitation (in)